sensor_id;sensor_type;location;lat;lon;timestamp;P1;durP1;ratioP1;P2;durP2;ratioP2
81306;SDS011;70775;50.846;3.224;2023-11-21T00:00:44;36.67;;;14.38;;
81306;SDS011;70775;50.846;3.224;2023-11-21T00:03:11;34.25;;;14.13;;
81306;SDS011;70775;50.846;3.224;2023-11-21T00:05:41;30.88;;;14.63;;
81306;SDS011;70775;50.846;3.224;2023-11-21T00:08:15;34.70;;;14.68;;
81306;SDS011;70775;50.846;3.224;2023-11-21T00:10:41;26.08;;;13.75;;
81306;SDS011;70775;50.846;3.224;2023-11-21T00:13:07;37.65;;;15.38;;
81306;SDS011;70775;50.846;3.224;2023-11-21T00:15:33;35.00;;;14.95;;
81306;SDS011;70775;50.846;3.224;2023-11-21T00:18:07;30.02;;;15.00;;
81306;SDS011;70775;50.846;3.224;2023-11-21T00:20:32;34.08;;;14.23;;
81306;SDS011;70775;50.846;3.224;2023-11-21T00:22:58;34.08;;;14.65;;
81306;SDS011;70775;50.846;3.224;2023-11-21T00:25:24;36.00;;;16.20;;
81306;SDS011;70775;50.846;3.224;2023-11-21T00:30:58;36.10;;;15.15;;
81306;SDS011;70775;50.846;3.224;2023-11-21T00:35:52;34.55;;;15.50;;
81306;SDS011;70775;50.846;3.224;2023-11-21T00:38:33;28.83;;;15.02;;
81306;SDS011;70775;50.846;3.224;2023-11-21T00:40:59;26.20;;;13.32;;
81306;SDS011;70775;50.846;3.224;2023-11-21T00:43:26;32.70;;;14.45;;
81306;SDS011;70775;50.846;3.224;2023-11-21T00:45:51;33.22;;;14.55;;
81306;SDS011;70775;50.846;3.224;2023-11-21T00:48:17;33.72;;;14.18;;
81306;SDS011;70775;50.846;3.224;2023-11-21T00:50:45;34.63;;;15.07;;
81306;SDS011;70775;50.846;3.224;2023-11-21T00:53:11;33.97;;;13.32;;
81306;SDS011;70775;50.846;3.224;2023-11-21T00:55:37;29.80;;;13.35;;
81306;SDS011;70775;50.846;3.224;2023-11-21T00:58:05;39.33;;;13.88;;
81306;SDS011;70775;50.846;3.224;2023-11-21T01:00:32;36.78;;;14.73;;
81306;SDS011;70775;50.846;3.224;2023-11-21T01:02:58;34.75;;;14.73;;
81306;SDS011;70775;50.846;3.224;2023-11-21T01:05:31;35.58;;;13.45;;
81306;SDS011;70775;50.846;3.224;2023-11-21T01:08:11;30.73;;;14.70;;
81306;SDS011;70775;50.846;3.224;2023-11-21T01:10:37;30.27;;;14.23;;
81306;SDS011;70775;50.846;3.224;2023-11-21T01:13:03;29.42;;;13.63;;
81306;SDS011;70775;50.846;3.224;2023-11-21T01:15:32;27.20;;;13.40;;
81306;SDS011;70775;50.846;3.224;2023-11-21T01:18:07;29.25;;;13.07;;
81306;SDS011;70775;50.846;3.224;2023-11-21T01:20:36;35.70;;;14.20;;
81306;SDS011;70775;50.846;3.224;2023-11-21T01:23:02;25.95;;;14.18;;
81306;SDS011;70775;50.846;3.224;2023-11-21T01:25:27;32.10;;;14.25;;
81306;SDS011;70775;50.846;3.224;2023-11-21T01:27:53;37.42;;;15.23;;
81306;SDS011;70775;50.846;3.224;2023-11-21T01:30:32;34.03;;;14.15;;
81306;SDS011;70775;50.846;3.224;2023-11-21T01:32:58;32.83;;;13.93;;
81306;SDS011;70775;50.846;3.224;2023-11-21T01:35:24;34.65;;;17.13;;
81306;SDS011;70775;50.846;3.224;2023-11-21T01:37:51;31.52;;;15.50;;
81306;SDS011;70775;50.846;3.224;2023-11-21T01:40:18;40.97;;;15.93;;
81306;SDS011;70775;50.846;3.224;2023-11-21T01:42:44;36.15;;;16.33;;
81306;SDS011;70775;50.846;3.224;2023-11-21T01:45:11;34.92;;;15.57;;
81306;SDS011;70775;50.846;3.224;2023-11-21T01:47:37;50.10;;;16.15;;
81306;SDS011;70775;50.846;3.224;2023-11-21T01:53:06;38.63;;;16.38;;
81306;SDS011;70775;50.846;3.224;2023-11-21T02:01:22;37.78;;;16.70;;
81306;SDS011;70775;50.846;3.224;2023-11-21T02:03:48;35.22;;;16.42;;
81306;SDS011;70775;50.846;3.224;2023-11-21T02:06:14;46.40;;;17.95;;
81306;SDS011;70775;50.846;3.224;2023-11-21T02:08:39;47.25;;;18.30;;
81306;SDS011;70775;50.846;3.224;2023-11-21T02:11:07;45.40;;;16.48;;
81306;SDS011;70775;50.846;3.224;2023-11-21T02:13:34;35.97;;;15.50;;
81306;SDS011;70775;50.846;3.224;2023-11-21T02:16:00;31.63;;;14.70;;
81306;SDS011;70775;50.846;3.224;2023-11-21T02:18:26;38.47;;;15.32;;
81306;SDS011;70775;50.846;3.224;2023-11-21T02:23:39;40.65;;;16.13;;
81306;SDS011;70775;50.846;3.224;2023-11-21T02:26:27;36.53;;;15.50;;
81306;SDS011;70775;50.846;3.224;2023-11-21T02:28:53;35.85;;;14.80;;
81306;SDS011;70775;50.846;3.224;2023-11-21T02:31:18;42.45;;;16.60;;
81306;SDS011;70775;50.846;3.224;2023-11-21T02:33:44;42.20;;;16.45;;
81306;SDS011;70775;50.846;3.224;2023-11-21T02:36:17;46.35;;;15.27;;
81306;SDS011;70775;50.846;3.224;2023-11-21T02:38:43;45.72;;;16.70;;
81306;SDS011;70775;50.846;3.224;2023-11-21T02:43:46;39.60;;;15.10;;
81306;SDS011;70775;50.846;3.224;2023-11-21T02:46:17;44.38;;;18.88;;
81306;SDS011;70775;50.846;3.224;2023-11-21T02:51:33;40.10;;;15.48;;
81306;SDS011;70775;50.846;3.224;2023-11-21T02:53:59;39.80;;;16.17;;
81306;SDS011;70775;50.846;3.224;2023-11-21T02:56:27;38.05;;;16.23;;
81306;SDS011;70775;50.846;3.224;2023-11-21T02:58:56;37.08;;;15.70;;
81306;SDS011;70775;50.846;3.224;2023-11-21T03:01:22;54.47;;;17.25;;
81306;SDS011;70775;50.846;3.224;2023-11-21T03:03:49;42.05;;;15.68;;
81306;SDS011;70775;50.846;3.224;2023-11-21T03:06:16;50.83;;;16.85;;
81306;SDS011;70775;50.846;3.224;2023-11-21T03:08:42;43.70;;;16.17;;
81306;SDS011;70775;50.846;3.224;2023-11-21T03:11:08;44.17;;;16.13;;
81306;SDS011;70775;50.846;3.224;2023-11-21T03:13:34;41.53;;;15.15;;
81306;SDS011;70775;50.846;3.224;2023-11-21T03:18:54;40.58;;;14.90;;
81306;SDS011;70775;50.846;3.224;2023-11-21T03:21:20;44.13;;;16.02;;
81306;SDS011;70775;50.846;3.224;2023-11-21T03:23:47;46.33;;;16.13;;
81306;SDS011;70775;50.846;3.224;2023-11-21T03:26:15;42.28;;;15.40;;
81306;SDS011;70775;50.846;3.224;2023-11-21T03:28:41;38.45;;;15.18;;
81306;SDS011;70775;50.846;3.224;2023-11-21T03:31:12;44.38;;;17.02;;
81306;SDS011;70775;50.846;3.224;2023-11-21T03:33:38;45.72;;;17.60;;
81306;SDS011;70775;50.846;3.224;2023-11-21T03:36:08;49.60;;;17.58;;
81306;SDS011;70775;50.846;3.224;2023-11-21T03:38:41;55.17;;;18.98;;
81306;SDS011;70775;50.846;3.224;2023-11-21T03:41:13;49.00;;;18.48;;
81306;SDS011;70775;50.846;3.224;2023-11-21T03:43:39;52.70;;;18.35;;
81306;SDS011;70775;50.846;3.224;2023-11-21T03:46:05;57.45;;;20.40;;
81306;SDS011;70775;50.846;3.224;2023-11-21T03:48:32;51.08;;;19.83;;
81306;SDS011;70775;50.846;3.224;2023-11-21T03:50:58;55.67;;;19.88;;
81306;SDS011;70775;50.846;3.224;2023-11-21T03:53:35;52.28;;;19.63;;
81306;SDS011;70775;50.846;3.224;2023-11-21T03:56:01;44.92;;;17.42;;
81306;SDS011;70775;50.846;3.224;2023-11-21T03:58:28;46.83;;;18.80;;
81306;SDS011;70775;50.846;3.224;2023-11-21T04:01:04;48.97;;;18.38;;
81306;SDS011;70775;50.846;3.224;2023-11-21T04:03:32;53.65;;;18.85;;
81306;SDS011;70775;50.846;3.224;2023-11-21T04:06:03;42.90;;;16.73;;
81306;SDS011;70775;50.846;3.224;2023-11-21T04:08:28;51.88;;;19.58;;
81306;SDS011;70775;50.846;3.224;2023-11-21T04:10:54;53.10;;;20.40;;
81306;SDS011;70775;50.846;3.224;2023-11-21T04:13:25;53.78;;;19.80;;
81306;SDS011;70775;50.846;3.224;2023-11-21T04:15:57;50.28;;;18.58;;
81306;SDS011;70775;50.846;3.224;2023-11-21T04:18:23;48.92;;;18.65;;
81306;SDS011;70775;50.846;3.224;2023-11-21T04:20:49;51.17;;;17.73;;
81306;SDS011;70775;50.846;3.224;2023-11-21T04:23:15;55.47;;;19.45;;
81306;SDS011;70775;50.846;3.224;2023-11-21T04:25:41;54.65;;;19.42;;
81306;SDS011;70775;50.846;3.224;2023-11-21T04:28:17;52.13;;;18.75;;
81306;SDS011;70775;50.846;3.224;2023-11-21T04:30:43;54.63;;;19.20;;
81306;SDS011;70775;50.846;3.224;2023-11-21T04:33:09;49.55;;;19.60;;
81306;SDS011;70775;50.846;3.224;2023-11-21T04:35:34;44.38;;;17.17;;
81306;SDS011;70775;50.846;3.224;2023-11-21T04:38:00;47.60;;;18.17;;
81306;SDS011;70775;50.846;3.224;2023-11-21T04:40:26;49.35;;;18.00;;
81306;SDS011;70775;50.846;3.224;2023-11-21T04:42:52;51.35;;;18.88;;
81306;SDS011;70775;50.846;3.224;2023-11-21T04:48:28;47.63;;;19.02;;
81306;SDS011;70775;50.846;3.224;2023-11-21T04:54:00;53.83;;;19.35;;
81306;SDS011;70775;50.846;3.224;2023-11-21T04:56:30;46.95;;;17.00;;
81306;SDS011;70775;50.846;3.224;2023-11-21T04:59:02;50.92;;;20.38;;
81306;SDS011;70775;50.846;3.224;2023-11-21T05:01:27;48.17;;;18.65;;
81306;SDS011;70775;50.846;3.224;2023-11-21T05:03:53;47.72;;;17.63;;
81306;SDS011;70775;50.846;3.224;2023-11-21T05:06:19;54.45;;;18.20;;
81306;SDS011;70775;50.846;3.224;2023-11-21T05:08:44;55.00;;;18.42;;
81306;SDS011;70775;50.846;3.224;2023-11-21T05:11:10;54.65;;;19.55;;
81306;SDS011;70775;50.846;3.224;2023-11-21T05:13:36;50.35;;;20.50;;
81306;SDS011;70775;50.846;3.224;2023-11-21T05:18:53;52.10;;;19.67;;
81306;SDS011;70775;50.846;3.224;2023-11-21T05:21:23;51.83;;;18.67;;
81306;SDS011;70775;50.846;3.224;2023-11-21T05:24:07;49.58;;;18.13;;
81306;SDS011;70775;50.846;3.224;2023-11-21T05:26:32;51.95;;;19.02;;
81306;SDS011;70775;50.846;3.224;2023-11-21T05:29:06;47.17;;;18.30;;
81306;SDS011;70775;50.846;3.224;2023-11-21T05:31:32;46.92;;;16.73;;
81306;SDS011;70775;50.846;3.224;2023-11-21T05:34:04;45.47;;;16.98;;
81306;SDS011;70775;50.846;3.224;2023-11-21T05:36:30;42.65;;;16.60;;
81306;SDS011;70775;50.846;3.224;2023-11-21T05:38:56;43.83;;;15.35;;
81306;SDS011;70775;50.846;3.224;2023-11-21T05:41:23;40.25;;;15.82;;
81306;SDS011;70775;50.846;3.224;2023-11-21T05:43:50;39.25;;;15.18;;
81306;SDS011;70775;50.846;3.224;2023-11-21T05:46:16;41.92;;;15.05;;
81306;SDS011;70775;50.846;3.224;2023-11-21T05:48:42;35.67;;;13.27;;
81306;SDS011;70775;50.846;3.224;2023-11-21T05:51:07;33.22;;;12.57;;
81306;SDS011;70775;50.846;3.224;2023-11-21T05:53:35;33.50;;;12.60;;
81306;SDS011;70775;50.846;3.224;2023-11-21T05:56:14;32.25;;;12.90;;
81306;SDS011;70775;50.846;3.224;2023-11-21T05:58:41;27.10;;;10.93;;
81306;SDS011;70775;50.846;3.224;2023-11-21T06:01:07;34.33;;;12.38;;
81306;SDS011;70775;50.846;3.224;2023-11-21T06:03:34;29.95;;;12.05;;
81306;SDS011;70775;50.846;3.224;2023-11-21T06:06:00;36.45;;;12.40;;
81306;SDS011;70775;50.846;3.224;2023-11-21T06:08:25;33.92;;;11.52;;
81306;SDS011;70775;50.846;3.224;2023-11-21T06:10:51;36.47;;;13.52;;
81306;SDS011;70775;50.846;3.224;2023-11-21T06:13:17;34.22;;;12.52;;
81306;SDS011;70775;50.846;3.224;2023-11-21T06:15:49;34.92;;;12.10;;
81306;SDS011;70775;50.846;3.224;2023-11-21T06:18:20;37.75;;;14.35;;
81306;SDS011;70775;50.846;3.224;2023-11-21T06:20:46;35.28;;;12.23;;
81306;SDS011;70775;50.846;3.224;2023-11-21T06:23:12;35.22;;;13.32;;
81306;SDS011;70775;50.846;3.224;2023-11-21T06:28:23;39.50;;;13.50;;
81306;SDS011;70775;50.846;3.224;2023-11-21T06:30:51;33.45;;;13.50;;
81306;SDS011;70775;50.846;3.224;2023-11-21T06:33:25;38.15;;;14.95;;
81306;SDS011;70775;50.846;3.224;2023-11-21T06:36:00;36.40;;;13.15;;
81306;SDS011;70775;50.846;3.224;2023-11-21T06:38:29;37.95;;;13.15;;
81306;SDS011;70775;50.846;3.224;2023-11-21T06:40:58;40.20;;;14.13;;
81306;SDS011;70775;50.846;3.224;2023-11-21T06:43:27;37.47;;;14.55;;
81306;SDS011;70775;50.846;3.224;2023-11-21T06:45:52;38.22;;;12.57;;
81306;SDS011;70775;50.846;3.224;2023-11-21T06:48:19;36.55;;;12.90;;
81306;SDS011;70775;50.846;3.224;2023-11-21T06:50:45;37.17;;;13.27;;
81306;SDS011;70775;50.846;3.224;2023-11-21T06:53:11;50.40;;;15.18;;
81306;SDS011;70775;50.846;3.224;2023-11-21T06:55:38;43.70;;;15.07;;
81306;SDS011;70775;50.846;3.224;2023-11-21T06:58:04;56.50;;;15.63;;
81306;SDS011;70775;50.846;3.224;2023-11-21T07:00:30;51.67;;;16.83;;
81306;SDS011;70775;50.846;3.224;2023-11-21T07:02:56;42.58;;;14.98;;
81306;SDS011;70775;50.846;3.224;2023-11-21T07:05:21;51.70;;;15.40;;
81306;SDS011;70775;50.846;3.224;2023-11-21T07:07:48;50.40;;;18.55;;
81306;SDS011;70775;50.846;3.224;2023-11-21T07:10:15;52.63;;;16.90;;
81306;SDS011;70775;50.846;3.224;2023-11-21T07:12:40;56.63;;;17.00;;
81306;SDS011;70775;50.846;3.224;2023-11-21T07:15:06;52.88;;;17.95;;
81306;SDS011;70775;50.846;3.224;2023-11-21T07:17:34;47.78;;;16.67;;
81306;SDS011;70775;50.846;3.224;2023-11-21T07:20:00;57.75;;;18.10;;
81306;SDS011;70775;50.846;3.224;2023-11-21T07:25:26;57.55;;;17.98;;
81306;SDS011;70775;50.846;3.224;2023-11-21T07:27:52;53.17;;;17.38;;
81306;SDS011;70775;50.846;3.224;2023-11-21T07:30:20;55.58;;;16.60;;
81306;SDS011;70775;50.846;3.224;2023-11-21T07:32:47;54.63;;;16.15;;
81306;SDS011;70775;50.846;3.224;2023-11-21T07:35:13;53.47;;;15.68;;
81306;SDS011;70775;50.846;3.224;2023-11-21T07:37:39;53.33;;;16.40;;
81306;SDS011;70775;50.846;3.224;2023-11-21T07:40:05;51.25;;;14.13;;
81306;SDS011;70775;50.846;3.224;2023-11-21T07:42:33;38.53;;;12.63;;
81306;SDS011;70775;50.846;3.224;2023-11-21T07:44:59;45.90;;;15.20;;
81306;SDS011;70775;50.846;3.224;2023-11-21T07:47:25;50.50;;;15.43;;
81306;SDS011;70775;50.846;3.224;2023-11-21T07:49:52;50.83;;;15.60;;
81306;SDS011;70775;50.846;3.224;2023-11-21T07:52:18;41.95;;;13.48;;
81306;SDS011;70775;50.846;3.224;2023-11-21T07:54:46;42.47;;;14.50;;
81306;SDS011;70775;50.846;3.224;2023-11-21T07:57:11;45.65;;;14.25;;
81306;SDS011;70775;50.846;3.224;2023-11-21T07:59:38;44.30;;;13.88;;
81306;SDS011;70775;50.846;3.224;2023-11-21T08:02:06;39.97;;;13.23;;
81306;SDS011;70775;50.846;3.224;2023-11-21T08:04:32;35.22;;;11.55;;
81306;SDS011;70775;50.846;3.224;2023-11-21T08:06:57;39.78;;;11.90;;
81306;SDS011;70775;50.846;3.224;2023-11-21T08:09:23;40.80;;;12.68;;
81306;SDS011;70775;50.846;3.224;2023-11-21T08:11:49;41.88;;;13.63;;
81306;SDS011;70775;50.846;3.224;2023-11-21T08:14:15;34.92;;;12.50;;
81306;SDS011;70775;50.846;3.224;2023-11-21T08:16:42;34.67;;;13.68;;
81306;SDS011;70775;50.846;3.224;2023-11-21T08:19:07;35.40;;;12.90;;
81306;SDS011;70775;50.846;3.224;2023-11-21T08:21:34;30.55;;;10.68;;
81306;SDS011;70775;50.846;3.224;2023-11-21T08:24:03;29.90;;;9.80;;
81306;SDS011;70775;50.846;3.224;2023-11-21T08:26:30;27.92;;;9.90;;
81306;SDS011;70775;50.846;3.224;2023-11-21T08:28:55;28.10;;;9.07;;
81306;SDS011;70775;50.846;3.224;2023-11-21T08:31:27;29.20;;;9.98;;
81306;SDS011;70775;50.846;3.224;2023-11-21T08:33:54;22.15;;;8.68;;
81306;SDS011;70775;50.846;3.224;2023-11-21T08:36:23;25.23;;;9.02;;
81306;SDS011;70775;50.846;3.224;2023-11-21T08:38:50;21.83;;;9.43;;
81306;SDS011;70775;50.846;3.224;2023-11-21T08:41:17;21.48;;;8.32;;
81306;SDS011;70775;50.846;3.224;2023-11-21T08:43:46;21.15;;;8.10;;
81306;SDS011;70775;50.846;3.224;2023-11-21T08:46:15;20.83;;;7.78;;
81306;SDS011;70775;50.846;3.224;2023-11-21T08:48:42;18.40;;;7.30;;
81306;SDS011;70775;50.846;3.224;2023-11-21T08:51:09;20.65;;;7.78;;
81306;SDS011;70775;50.846;3.224;2023-11-21T08:53:36;20.88;;;7.95;;
81306;SDS011;70775;50.846;3.224;2023-11-21T08:56:02;20.13;;;8.75;;
81306;SDS011;70775;50.846;3.224;2023-11-21T08:58:29;18.70;;;7.53;;
81306;SDS011;70775;50.846;3.224;2023-11-21T09:00:57;13.65;;;7.18;;
81306;SDS011;70775;50.846;3.224;2023-11-21T09:03:22;15.55;;;6.85;;
81306;SDS011;70775;50.846;3.224;2023-11-21T09:05:48;24.23;;;7.90;;
81306;SDS011;70775;50.846;3.224;2023-11-21T09:08:14;17.13;;;6.55;;
81306;SDS011;70775;50.846;3.224;2023-11-21T09:10:39;14.82;;;7.00;;
81306;SDS011;70775;50.846;3.224;2023-11-21T09:13:07;13.10;;;6.35;;
81306;SDS011;70775;50.846;3.224;2023-11-21T09:15:34;13.65;;;6.10;;
81306;SDS011;70775;50.846;3.224;2023-11-21T09:18:00;13.43;;;6.55;;
81306;SDS011;70775;50.846;3.224;2023-11-21T09:20:26;15.27;;;5.65;;
81306;SDS011;70775;50.846;3.224;2023-11-21T09:22:52;15.80;;;6.82;;
81306;SDS011;70775;50.846;3.224;2023-11-21T09:25:19;14.38;;;6.50;;
81306;SDS011;70775;50.846;3.224;2023-11-21T09:27:46;15.07;;;6.30;;
81306;SDS011;70775;50.846;3.224;2023-11-21T09:30:12;18.80;;;6.53;;
81306;SDS011;70775;50.846;3.224;2023-11-21T09:32:39;15.63;;;6.07;;
81306;SDS011;70775;50.846;3.224;2023-11-21T09:35:05;14.23;;;6.10;;
81306;SDS011;70775;50.846;3.224;2023-11-21T09:37:33;15.68;;;5.70;;
81306;SDS011;70775;50.846;3.224;2023-11-21T09:39:59;21.52;;;5.57;;
81306;SDS011;70775;50.846;3.224;2023-11-21T09:42:38;15.90;;;6.78;;
81306;SDS011;70775;50.846;3.224;2023-11-21T09:45:15;17.75;;;6.28;;
81306;SDS011;70775;50.846;3.224;2023-11-21T09:47:55;13.98;;;5.38;;
81306;SDS011;70775;50.846;3.224;2023-11-21T09:50:21;13.20;;;6.00;;
81306;SDS011;70775;50.846;3.224;2023-11-21T09:55:29;21.70;;;6.50;;
81306;SDS011;70775;50.846;3.224;2023-11-21T09:58:01;15.15;;;5.93;;
81306;SDS011;70775;50.846;3.224;2023-11-21T10:00:30;11.93;;;6.05;;
81306;SDS011;70775;50.846;3.224;2023-11-21T10:02:58;15.13;;;6.63;;
81306;SDS011;70775;50.846;3.224;2023-11-21T10:05:24;13.27;;;6.47;;
81306;SDS011;70775;50.846;3.224;2023-11-21T10:07:50;23.88;;;7.07;;
81306;SDS011;70775;50.846;3.224;2023-11-21T10:10:18;14.30;;;5.97;;
81306;SDS011;70775;50.846;3.224;2023-11-21T10:12:48;14.35;;;5.72;;
81306;SDS011;70775;50.846;3.224;2023-11-21T10:15:19;16.10;;;5.32;;
81306;SDS011;70775;50.846;3.224;2023-11-21T10:17:46;14.52;;;5.38;;
81306;SDS011;70775;50.846;3.224;2023-11-21T10:20:14;11.93;;;6.00;;
81306;SDS011;70775;50.846;3.224;2023-11-21T10:22:41;15.35;;;5.93;;
81306;SDS011;70775;50.846;3.224;2023-11-21T10:25:11;13.75;;;5.88;;
81306;SDS011;70775;50.846;3.224;2023-11-21T10:27:40;24.15;;;6.05;;
81306;SDS011;70775;50.846;3.224;2023-11-21T10:30:06;20.02;;;6.22;;
81306;SDS011;70775;50.846;3.224;2023-11-21T10:32:36;15.30;;;5.47;;
81306;SDS011;70775;50.846;3.224;2023-11-21T10:35:03;12.80;;;4.60;;
81306;SDS011;70775;50.846;3.224;2023-11-21T10:37:41;11.73;;;4.25;;
81306;SDS011;70775;50.846;3.224;2023-11-21T10:40:08;13.85;;;5.20;;
81306;SDS011;70775;50.846;3.224;2023-11-21T10:42:37;18.60;;;5.50;;
81306;SDS011;70775;50.846;3.224;2023-11-21T10:45:07;12.10;;;4.68;;
81306;SDS011;70775;50.846;3.224;2023-11-21T10:47:39;10.57;;;3.80;;
81306;SDS011;70775;50.846;3.224;2023-11-21T10:50:06;16.85;;;4.93;;
81306;SDS011;70775;50.846;3.224;2023-11-21T10:52:36;14.07;;;4.47;;
81306;SDS011;70775;50.846;3.224;2023-11-21T10:55:13;10.00;;;4.32;;
81306;SDS011;70775;50.846;3.224;2023-11-21T10:57:41;12.13;;;5.20;;
81306;SDS011;70775;50.846;3.224;2023-11-21T11:00:08;14.68;;;5.43;;
81306;SDS011;70775;50.846;3.224;2023-11-21T11:02:38;15.68;;;5.72;;
81306;SDS011;70775;50.846;3.224;2023-11-21T11:05:04;13.65;;;4.88;;
81306;SDS011;70775;50.846;3.224;2023-11-21T11:07:31;13.30;;;5.88;;
81306;SDS011;70775;50.846;3.224;2023-11-21T11:09:59;12.38;;;5.20;;
81306;SDS011;70775;50.846;3.224;2023-11-21T11:12:25;14.45;;;5.70;;
81306;SDS011;70775;50.846;3.224;2023-11-21T11:14:51;14.75;;;5.35;;
81306;SDS011;70775;50.846;3.224;2023-11-21T11:17:18;15.68;;;5.82;;
81306;SDS011;70775;50.846;3.224;2023-11-21T11:19:45;12.52;;;5.95;;
81306;SDS011;70775;50.846;3.224;2023-11-21T11:25:12;19.67;;;6.25;;
81306;SDS011;70775;50.846;3.224;2023-11-21T11:33:21;21.95;;;6.22;;
81306;SDS011;70775;50.846;3.224;2023-11-21T11:38:23;21.67;;;5.43;;
81306;SDS011;70775;50.846;3.224;2023-11-21T11:40:51;14.18;;;4.95;;
81306;SDS011;70775;50.846;3.224;2023-11-21T11:43:25;11.85;;;4.68;;
81306;SDS011;70775;50.846;3.224;2023-11-21T11:45:52;14.02;;;4.93;;
81306;SDS011;70775;50.846;3.224;2023-11-21T11:48:21;20.38;;;5.35;;
81306;SDS011;70775;50.846;3.224;2023-11-21T11:51:20;14.63;;;5.10;;
81306;SDS011;70775;50.846;3.224;2023-11-21T11:53:42;27.23;;;7.72;;
81306;SDS011;70775;50.846;3.224;2023-11-21T11:56:27;23.48;;;5.07;;
81306;SDS011;70775;50.846;3.224;2023-11-21T11:58:57;15.93;;;6.10;;
81306;SDS011;70775;50.846;3.224;2023-11-21T12:01:25;20.05;;;5.70;;
81306;SDS011;70775;50.846;3.224;2023-11-21T12:04:22;18.75;;;5.60;;
81306;SDS011;70775;50.846;3.224;2023-11-21T12:06:52;15.77;;;5.60;;
81306;SDS011;70775;50.846;3.224;2023-11-21T12:09:19;19.80;;;5.22;;
81306;SDS011;70775;50.846;3.224;2023-11-21T12:11:46;18.77;;;7.55;;
81306;SDS011;70775;50.846;3.224;2023-11-21T12:14:14;22.48;;;5.57;;
81306;SDS011;70775;50.846;3.224;2023-11-21T12:16:40;18.77;;;4.68;;
81306;SDS011;70775;50.846;3.224;2023-11-21T12:19:07;14.93;;;4.15;;
81306;SDS011;70775;50.846;3.224;2023-11-21T12:21:33;15.70;;;4.50;;
81306;SDS011;70775;50.846;3.224;2023-11-21T12:24:01;16.15;;;4.10;;
81306;SDS011;70775;50.846;3.224;2023-11-21T12:26:26;15.30;;;4.50;;
81306;SDS011;70775;50.846;3.224;2023-11-21T12:28:52;13.55;;;4.85;;
81306;SDS011;70775;50.846;3.224;2023-11-21T12:31:24;23.88;;;4.88;;
81306;SDS011;70775;50.846;3.224;2023-11-21T12:33:50;9.45;;;4.05;;
81306;SDS011;70775;50.846;3.224;2023-11-21T12:36:16;15.70;;;4.07;;
81306;SDS011;70775;50.846;3.224;2023-11-21T12:38:42;13.02;;;4.15;;
81306;SDS011;70775;50.846;3.224;2023-11-21T12:41:09;9.93;;;3.33;;
81306;SDS011;70775;50.846;3.224;2023-11-21T12:43:35;11.85;;;3.30;;
81306;SDS011;70775;50.846;3.224;2023-11-21T12:46:07;10.07;;;2.47;;
81306;SDS011;70775;50.846;3.224;2023-11-21T12:48:39;15.43;;;3.00;;
81306;SDS011;70775;50.846;3.224;2023-11-21T12:51:07;16.70;;;3.08;;
81306;SDS011;70775;50.846;3.224;2023-11-21T12:53:34;13.65;;;3.22;;
81306;SDS011;70775;50.846;3.224;2023-11-21T12:56:12;8.95;;;2.55;;
81306;SDS011;70775;50.846;3.224;2023-11-21T12:58:43;14.45;;;2.92;;
81306;SDS011;70775;50.846;3.224;2023-11-21T13:01:12;11.85;;;3.05;;
81306;SDS011;70775;50.846;3.224;2023-11-21T13:03:42;11.93;;;3.80;;
81306;SDS011;70775;50.846;3.224;2023-11-21T13:06:10;15.20;;;3.58;;
81306;SDS011;70775;50.846;3.224;2023-11-21T13:08:37;13.15;;;3.85;;
81306;SDS011;70775;50.846;3.224;2023-11-21T13:11:04;8.98;;;2.60;;
81306;SDS011;70775;50.846;3.224;2023-11-21T13:13:31;10.70;;;3.65;;
81306;SDS011;70775;50.846;3.224;2023-11-21T13:15:59;8.75;;;3.17;;
81306;SDS011;70775;50.846;3.224;2023-11-21T13:18:26;16.25;;;3.08;;
81306;SDS011;70775;50.846;3.224;2023-11-21T13:20:56;15.35;;;3.30;;
81306;SDS011;70775;50.846;3.224;2023-11-21T13:23:23;11.70;;;3.03;;
81306;SDS011;70775;50.846;3.224;2023-11-21T13:25:50;18.05;;;3.03;;
81306;SDS011;70775;50.846;3.224;2023-11-21T13:28:16;12.85;;;2.80;;
81306;SDS011;70775;50.846;3.224;2023-11-21T13:30:47;9.18;;;2.78;;
81306;SDS011;70775;50.846;3.224;2023-11-21T13:33:13;7.78;;;3.40;;
81306;SDS011;70775;50.846;3.224;2023-11-21T13:35:42;7.53;;;2.40;;
81306;SDS011;70775;50.846;3.224;2023-11-21T13:38:16;11.32;;;2.70;;
81306;SDS011;70775;50.846;3.224;2023-11-21T13:40:46;11.93;;;2.75;;
81306;SDS011;70775;50.846;3.224;2023-11-21T13:43:19;17.13;;;2.58;;
81306;SDS011;70775;50.846;3.224;2023-11-21T13:45:47;18.35;;;2.80;;
81306;SDS011;70775;50.846;3.224;2023-11-21T13:48:23;10.85;;;2.80;;
81306;SDS011;70775;50.846;3.224;2023-11-21T13:51:08;7.43;;;2.40;;
81306;SDS011;70775;50.846;3.224;2023-11-21T13:53:46;9.35;;;2.53;;
81306;SDS011;70775;50.846;3.224;2023-11-21T13:56:14;6.72;;;2.30;;
81306;SDS011;70775;50.846;3.224;2023-11-21T13:58:49;8.82;;;2.78;;
81306;SDS011;70775;50.846;3.224;2023-11-21T14:01:19;8.90;;;2.55;;
81306;SDS011;70775;50.846;3.224;2023-11-21T14:03:55;9.52;;;2.20;;
81306;SDS011;70775;50.846;3.224;2023-11-21T14:06:45;10.45;;;3.15;;
81306;SDS011;70775;50.846;3.224;2023-11-21T14:09:16;10.38;;;2.60;;
81306;SDS011;70775;50.846;3.224;2023-11-21T14:11:54;15.85;;;3.60;;
81306;SDS011;70775;50.846;3.224;2023-11-21T14:14:22;11.48;;;2.90;;
81306;SDS011;70775;50.846;3.224;2023-11-21T14:16:55;8.13;;;3.10;;
81306;SDS011;70775;50.846;3.224;2023-11-21T14:19:23;9.55;;;3.22;;
81306;SDS011;70775;50.846;3.224;2023-11-21T14:21:56;8.85;;;2.80;;
81306;SDS011;70775;50.846;3.224;2023-11-21T14:24:22;7.65;;;2.92;;
81306;SDS011;70775;50.846;3.224;2023-11-21T14:26:49;8.38;;;2.63;;
81306;SDS011;70775;50.846;3.224;2023-11-21T14:29:17;10.93;;;2.90;;
81306;SDS011;70775;50.846;3.224;2023-11-21T14:31:47;9.43;;;2.30;;
81306;SDS011;70775;50.846;3.224;2023-11-21T14:34:13;8.10;;;2.50;;
81306;SDS011;70775;50.846;3.224;2023-11-21T14:36:40;9.60;;;2.38;;
81306;SDS011;70775;50.846;3.224;2023-11-21T14:39:06;11.70;;;3.00;;
81306;SDS011;70775;50.846;3.224;2023-11-21T14:41:34;11.20;;;3.05;;
81306;SDS011;70775;50.846;3.224;2023-11-21T14:44:02;10.13;;;2.60;;
81306;SDS011;70775;50.846;3.224;2023-11-21T14:46:29;8.13;;;2.65;;
81306;SDS011;70775;50.846;3.224;2023-11-21T14:48:55;6.63;;;2.80;;
81306;SDS011;70775;50.846;3.224;2023-11-21T14:51:44;11.20;;;3.08;;
81306;SDS011;70775;50.846;3.224;2023-11-21T14:54:28;7.65;;;2.58;;
81306;SDS011;70775;50.846;3.224;2023-11-21T14:57:09;11.23;;;2.87;;
81306;SDS011;70775;50.846;3.224;2023-11-21T14:59:37;12.98;;;3.30;;
81306;SDS011;70775;50.846;3.224;2023-11-21T15:02:07;8.27;;;3.17;;
81306;SDS011;70775;50.846;3.224;2023-11-21T15:04:41;8.82;;;2.75;;
81306;SDS011;70775;50.846;3.224;2023-11-21T15:07:07;7.50;;;2.50;;
81306;SDS011;70775;50.846;3.224;2023-11-21T15:09:33;8.27;;;3.08;;
81306;SDS011;70775;50.846;3.224;2023-11-21T15:12:04;9.07;;;3.83;;
81306;SDS011;70775;50.846;3.224;2023-11-21T15:14:43;9.15;;;3.05;;
81306;SDS011;70775;50.846;3.224;2023-11-21T15:17:11;15.77;;;3.72;;
81306;SDS011;70775;50.846;3.224;2023-11-21T15:19:43;10.05;;;3.63;;
81306;SDS011;70775;50.846;3.224;2023-11-21T15:22:08;8.82;;;3.00;;
81306;SDS011;70775;50.846;3.224;2023-11-21T15:24:37;12.05;;;3.15;;
81306;SDS011;70775;50.846;3.224;2023-11-21T15:27:03;11.40;;;3.85;;
81306;SDS011;70775;50.846;3.224;2023-11-21T15:29:29;10.20;;;3.38;;